createdAt,value
2018-12-29T00:00:21.779Z,0
2018-12-29T00:01:23.997Z,0
2018-12-29T00:02:26.141Z,0
2018-12-29T00:03:28.555Z,0
2018-12-29T00:04:30.696Z,0
2018-12-29T00:05:33.109Z,0
2018-12-29T00:06:35.252Z,0
2018-12-29T00:07:37.778Z,0
2018-12-29T00:08:39.915Z,0
2018-12-29T00:09:42.048Z,0
2018-12-29T00:10:44.180Z,0
2018-12-29T00:11:46.316Z,0
2018-12-29T00:12:48.452Z,0
2018-12-29T00:13:50.559Z,0
2018-12-29T00:14:55.032Z,0
2018-12-29T00:15:57.642Z,0
2018-12-29T00:16:59.767Z,0
2018-12-29T00:18:02.289Z,0
2018-12-29T00:19:04.409Z,0
2018-12-29T00:20:06.557Z,0
2018-12-29T00:21:08.693Z,0
2018-12-29T00:22:10.835Z,0
2018-12-29T00:23:12.984Z,0
2018-12-29T00:24:15.134Z,0
2018-12-29T00:25:17.294Z,0
2018-12-29T00:26:19.441Z,0
2018-12-29T00:27:21.587Z,0
2018-12-29T00:28:23.809Z,0
2018-12-29T00:29:25.944Z,0
2018-12-29T00:30:28.086Z,0
2018-12-29T00:31:30.207Z,0
2018-12-29T00:32:32.353Z,0
2018-12-29T00:33:34.789Z,0
2018-12-29T00:34:36.923Z,0
2018-12-29T00:35:39.069Z,0
2018-12-29T00:36:41.191Z,0
2018-12-29T00:37:43.342Z,0
2018-12-29T00:38:45.487Z,0
2018-12-29T00:39:48.003Z,0
2018-12-29T00:40:50.153Z,0
2018-12-29T00:41:52.591Z,0
2018-12-29T00:42:55.026Z,0
2018-12-29T00:43:57.179Z,0
2018-12-29T00:45:02.532Z,0
2018-12-29T00:46:05.313Z,0
2018-12-29T00:47:07.458Z,0
2018-12-29T00:48:09.623Z,0
2018-12-29T00:49:12.139Z,0
2018-12-29T00:50:14.279Z,0
2018-12-29T00:51:16.411Z,0
2018-12-29T00:52:18.543Z,0
2018-12-29T00:53:20.692Z,0
2018-12-29T00:54:22.916Z,0
2018-12-29T00:55:25.039Z,0
2018-12-29T00:56:27.749Z,0
2018-12-29T00:57:29.917Z,0
2018-12-29T00:58:32.074Z,0
2018-12-29T00:59:34.217Z,0
2018-12-29T01:00:36.632Z,0
2018-12-29T01:01:38.761Z,0
2018-12-29T01:02:40.896Z,0
2018-12-29T01:03:43.040Z,0
2018-12-29T01:04:45.185Z,0
2018-12-29T01:05:47.306Z,0
2018-12-29T01:06:49.437Z,0
2018-12-29T01:07:51.582Z,0
2018-12-29T01:08:53.721Z,0
2018-12-29T01:09:55.852Z,0
2018-12-29T01:10:57.999Z,0
2018-12-29T01:12:00.129Z,0
2018-12-29T01:13:02.268Z,0
2018-12-29T01:14:04.455Z,0
2018-12-29T01:15:10.005Z,0
2018-12-29T01:16:12.449Z,0
2018-12-29T01:17:14.593Z,0
2018-12-29T01:18:17.027Z,0
2018-12-29T01:19:19.447Z,0
2018-12-29T01:20:21.582Z,0
2018-12-29T01:21:23.735Z,0
2018-12-29T01:22:25.872Z,0
2018-12-29T01:23:28.009Z,0
2018-12-29T01:24:30.149Z,0
2018-12-29T01:25:32.285Z,0
2018-12-29T01:26:34.418Z,0
2018-12-29T01:27:36.936Z,0
2018-12-29T01:28:39.155Z,0
2018-12-29T01:29:41.285Z,0
2018-12-29T01:30:43.402Z,0
2018-12-29T01:31:45.537Z,0
2018-12-29T01:32:47.681Z,0
2018-12-29T01:33:49.834Z,0
2018-12-29T01:34:52.242Z,0
2018-12-29T01:35:54.788Z,0
2018-12-29T01:36:57.323Z,0
2018-12-29T01:37:59.727Z,0
2018-12-29T01:39:01.871Z,0
2018-12-29T01:40:04.015Z,0
2018-12-29T01:41:06.156Z,0
2018-12-29T01:42:08.290Z,0
2018-12-29T01:43:10.436Z,0
2018-12-29T01:44:12.556Z,0
2018-12-29T01:45:17.489Z,0
2018-12-29T01:46:19.921Z,0
2018-12-29T01:47:22.048Z,0
2018-12-29T01:48:24.172Z,0
2018-12-29T01:49:26.586Z,0
2018-12-29T01:50:28.756Z,0
2018-12-29T01:51:30.886Z,0
2018-12-29T01:52:33.035Z,0
2018-12-29T01:53:35.162Z,0
2018-12-29T01:54:37.404Z,0
2018-12-29T01:55:39.619Z,0
2018-12-29T01:56:42.039Z,0
2018-12-29T01:57:44.191Z,0
2018-12-29T01:58:46.345Z,0
2018-12-29T01:59:48.476Z,0
2018-12-29T02:00:50.612Z,0
2018-12-29T02:01:53.024Z,0
2018-12-29T02:02:55.158Z,0
2018-12-29T02:03:57.569Z,0
2018-12-29T02:04:59.710Z,0
2018-12-29T02:06:02.143Z,0
2018-12-29T02:07:04.269Z,0
2018-12-29T02:08:06.402Z,0
2018-12-29T02:09:08.541Z,0
2018-12-29T02:10:10.671Z,0
2018-12-29T02:11:12.817Z,0
2018-12-29T02:12:15.230Z,0
2018-12-29T02:13:17.366Z,0
2018-12-29T02:14:19.586Z,0
2018-12-29T02:15:24.779Z,0
2018-12-29T02:16:27.104Z,0
2018-12-29T02:17:29.644Z,0
2018-12-29T02:18:32.056Z,0
2018-12-29T02:19:34.204Z,0
2018-12-29T02:20:36.353Z,0
2018-12-29T02:21:38.473Z,0
2018-12-29T02:22:40.608Z,0
2018-12-29T02:23:42.757Z,0
2018-12-29T02:24:44.895Z,0
2018-12-29T02:25:47.034Z,0
2018-12-29T02:26:49.172Z,0
2018-12-29T02:27:51.302Z,0
2018-12-29T02:28:53.719Z,0
2018-12-29T02:29:55.835Z,0
2018-12-29T02:30:58.269Z,0
2018-12-29T02:32:00.428Z,0
2018-12-29T02:33:02.561Z,0
2018-12-29T02:34:05.251Z,0
2018-12-29T02:35:07.403Z,0
2018-12-29T02:36:09.534Z,0
2018-12-29T02:37:12.380Z,0
2018-12-29T02:38:14.523Z,0
2018-12-29T02:39:16.650Z,0
2018-12-29T02:40:19.164Z,0
2018-12-29T02:41:21.297Z,0
2018-12-29T02:42:23.864Z,0
2018-12-29T02:43:25.996Z,0
2018-12-29T02:44:28.158Z,0
2018-12-29T02:45:33.259Z,0
2018-12-29T02:46:35.689Z,0
2018-12-29T02:47:37.837Z,0
2018-12-29T02:48:39.993Z,0
2018-12-29T02:49:42.141Z,0
2018-12-29T02:50:44.298Z,0
2018-12-29T02:51:46.517Z,0
2018-12-29T02:52:48.970Z,0
2018-12-29T02:53:51.099Z,0
2018-12-29T02:54:53.234Z,0
2018-12-29T02:55:55.782Z,0
2018-12-29T02:56:57.936Z,0
2018-12-29T02:58:00.165Z,0
2018-12-29T02:59:02.586Z,0
2018-12-29T03:00:05.315Z,0
2018-12-29T03:01:07.479Z,0
2018-12-29T03:02:09.610Z,0
2018-12-29T03:03:11.762Z,0
2018-12-29T03:04:13.937Z,0
2018-12-29T03:05:16.373Z,0
2018-12-29T03:06:18.798Z,0
2018-12-29T03:07:20.905Z,0
2018-12-29T03:08:23.097Z,0
2018-12-29T03:09:25.236Z,0
2018-12-29T03:10:27.389Z,0
2018-12-29T03:11:29.820Z,0
2018-12-29T03:12:31.951Z,0
2018-12-29T03:13:34.077Z,0
2018-12-29T03:14:36.229Z,0
2018-12-29T03:15:41.480Z,0
2018-12-29T03:16:44.060Z,0
2018-12-29T03:17:46.220Z,0
2018-12-29T03:18:48.662Z,0
2018-12-29T03:19:51.264Z,0
2018-12-29T03:20:53.404Z,0
2018-12-29T03:21:55.547Z,0
2018-12-29T03:22:58.021Z,0
2018-12-29T03:24:00.158Z,0
2018-12-29T03:25:02.312Z,0
2018-12-29T03:26:04.476Z,0
2018-12-29T03:27:06.648Z,0
2018-12-29T03:28:08.800Z,0
2018-12-29T03:29:10.982Z,0
2018-12-29T03:30:13.121Z,0
2018-12-29T03:31:15.589Z,0
2018-12-29T03:32:18.483Z,0
2018-12-29T03:33:21.230Z,0
2018-12-29T03:34:23.401Z,0
2018-12-29T03:35:25.526Z,0
2018-12-29T03:36:27.680Z,0
2018-12-29T03:37:29.838Z,0
2018-12-29T03:38:32.002Z,0
2018-12-29T03:39:34.455Z,0
2018-12-29T03:40:36.622Z,0
2018-12-29T03:41:38.775Z,0
2018-12-29T03:42:40.907Z,0
2018-12-29T03:43:43.059Z,0
2018-12-29T03:44:45.194Z,0
2018-12-29T03:45:49.185Z,0
2018-12-29T03:46:51.650Z,0
2018-12-29T03:47:53.804Z,0
2018-12-29T03:48:55.941Z,0
2018-12-29T03:49:58.348Z,0
2018-12-29T03:51:00.555Z,0
2018-12-29T03:52:03.478Z,0
2018-12-29T03:53:05.629Z,0
2018-12-29T03:54:07.757Z,0
2018-12-29T03:55:09.909Z,0
2018-12-29T03:56:12.345Z,0
2018-12-29T03:57:14.777Z,0
2018-12-29T03:58:17.205Z,0
2018-12-29T03:59:19.331Z,0
2018-12-29T04:00:21.502Z,0
2018-12-29T04:01:23.940Z,0
2018-12-29T04:02:26.075Z,0
2018-12-29T04:03:28.233Z,0
2018-12-29T04:04:30.379Z,0
2018-12-29T04:05:32.535Z,0
2018-12-29T04:06:34.971Z,0
2018-12-29T04:07:37.379Z,0
2018-12-29T04:08:40.188Z,0
2018-12-29T04:09:42.367Z,0
2018-12-29T04:10:44.508Z,0
2018-12-29T04:11:46.652Z,0
2018-12-29T04:12:48.789Z,0
2018-12-29T04:13:51.377Z,0
2018-12-29T04:14:53.923Z,0
2018-12-29T04:15:58.109Z,0
2018-12-29T04:17:00.560Z,0
2018-12-29T04:18:02.739Z,0
2018-12-29T04:19:05.181Z,0
2018-12-29T04:20:07.598Z,0
2018-12-29T04:21:09.788Z,0
2018-12-29T04:22:12.238Z,0
2018-12-29T04:23:14.403Z,0
2018-12-29T04:24:16.512Z,0
2018-12-29T04:25:18.639Z,0
2018-12-29T04:26:20.781Z,0
2018-12-29T04:27:22.913Z,0
2018-12-29T04:28:25.434Z,0
2018-12-29T04:29:27.949Z,0
2018-12-29T04:30:30.097Z,0
2018-12-29T04:31:32.242Z,0
2018-12-29T04:32:34.375Z,0
2018-12-29T04:33:36.808Z,0
2018-12-29T04:34:38.947Z,0
2018-12-29T04:35:41.090Z,0
2018-12-29T04:36:43.258Z,0
2018-12-29T04:37:45.394Z,0
2018-12-29T04:38:47.514Z,0
2018-12-29T04:39:49.638Z,0
2018-12-29T04:40:51.784Z,0
2018-12-29T04:41:53.914Z,0
2018-12-29T04:42:56.047Z,0
2018-12-29T04:43:58.182Z,0
2018-12-29T04:45:00.323Z,0
2018-12-29T04:46:05.299Z,0
2018-12-29T04:47:07.614Z,0
2018-12-29T04:48:09.745Z,0
2018-12-29T04:49:11.887Z,0
2018-12-29T04:50:14.036Z,0
2018-12-29T04:51:16.196Z,0
2018-12-29T04:52:18.318Z,0
2018-12-29T04:53:20.452Z,0
2018-12-29T04:54:22.602Z,0
2018-12-29T04:55:24.731Z,0
2018-12-29T04:56:26.851Z,0
2018-12-29T04:57:28.970Z,0
2018-12-29T04:58:31.105Z,0
2018-12-29T04:59:33.241Z,0
2018-12-29T05:00:35.382Z,0
2018-12-29T05:01:37.529Z,0
2018-12-29T05:02:39.673Z,0
2018-12-29T05:03:41.797Z,0
2018-12-29T05:04:43.904Z,0
2018-12-29T05:05:46.127Z,0
2018-12-29T05:06:48.323Z,0
2018-12-29T05:07:50.467Z,0
2018-12-29T05:08:52.595Z,0
2018-12-29T05:09:54.747Z,0
2018-12-29T05:10:57.175Z,0
2018-12-29T05:11:59.674Z,0
2018-12-29T05:13:01.815Z,0
2018-12-29T05:14:03.945Z,0
2018-12-29T05:15:06.392Z,0
2018-12-29T05:16:12.719Z,0
2018-12-29T05:17:15.455Z,0
2018-12-29T05:18:17.608Z,0
2018-12-29T05:19:19.726Z,0
2018-12-29T05:20:22.204Z,0
2018-12-29T05:21:24.336Z,0
2018-12-29T05:22:26.462Z,0
2018-12-29T05:23:28.610Z,0
2018-12-29T05:24:30.723Z,0
2018-12-29T05:25:32.860Z,0
2018-12-29T05:26:35.006Z,0
2018-12-29T05:27:37.144Z,0
2018-12-29T05:28:39.349Z,0
2018-12-29T05:29:41.476Z,0
2018-12-29T05:30:43.623Z,0
2018-12-29T05:31:45.753Z,0
2018-12-29T05:32:47.901Z,0
2018-12-29T05:33:50.041Z,0
2018-12-29T05:34:52.185Z,0
2018-12-29T05:35:54.328Z,0
2018-12-29T05:36:56.455Z,0
2018-12-29T05:37:58.578Z,0
2018-12-29T05:39:00.728Z,0
2018-12-29T05:40:02.885Z,0
2018-12-29T05:41:05.007Z,0
2018-12-29T05:42:07.147Z,0
2018-12-29T05:43:09.258Z,0
2018-12-29T05:44:11.679Z,0
2018-12-29T05:45:14.205Z,0
2018-12-29T05:46:20.260Z,0
2018-12-29T05:47:22.802Z,0
2018-12-29T05:48:24.952Z,0
2018-12-29T05:49:27.481Z,0
2018-12-29T05:50:29.630Z,0
2018-12-29T05:51:31.759Z,0
2018-12-29T05:52:33.879Z,0
2018-12-29T05:53:35.994Z,0
2018-12-29T05:54:38.129Z,0
2018-12-29T05:55:40.278Z,0
2018-12-29T05:56:42.413Z,0
2018-12-29T05:57:44.546Z,0
2018-12-29T05:58:46.772Z,0
2018-12-29T05:59:48.914Z,0
2018-12-29T06:00:51.062Z,0
2018-12-29T06:01:53.211Z,0
2018-12-29T06:02:55.640Z,0
2018-12-29T06:03:57.770Z,0
2018-12-29T06:04:59.897Z,0
2018-12-29T06:06:02.069Z,0
2018-12-29T06:07:04.198Z,0
2018-12-29T06:08:06.320Z,0
2018-12-29T06:09:08.851Z,0
2018-12-29T06:10:10.991Z,0
2018-12-29T06:11:13.118Z,0
2018-12-29T06:12:15.266Z,0
2018-12-29T06:13:17.418Z,0
2018-12-29T06:14:19.552Z,0
2018-12-29T06:15:21.688Z,0
2018-12-29T06:16:27.567Z,0
2018-12-29T06:17:30.072Z,0
2018-12-29T06:18:32.198Z,0
2018-12-29T06:19:34.345Z,0
2018-12-29T06:20:36.465Z,0
2018-12-29T06:21:38.610Z,0
2018-12-29T06:22:41.004Z,0
2018-12-29T06:23:43.126Z,0
2018-12-29T06:24:45.255Z,0
2018-12-29T06:25:47.406Z,0
2018-12-29T06:26:49.943Z,0
2018-12-29T06:27:52.350Z,0
2018-12-29T06:28:54.525Z,0
2018-12-29T06:29:56.663Z,0
2018-12-29T06:30:59.058Z,0
2018-12-29T06:32:01.502Z,0
2018-12-29T06:33:03.631Z,0
2018-12-29T06:34:05.784Z,0
2018-12-29T06:35:07.918Z,0
2018-12-29T06:36:10.133Z,0
2018-12-29T06:37:12.320Z,0
2018-12-29T06:38:14.446Z,0
2018-12-29T06:39:16.588Z,0
2018-12-29T06:40:18.728Z,0
2018-12-29T06:41:21.259Z,0
2018-12-29T06:42:23.392Z,0
2018-12-29T06:43:25.543Z,0
2018-12-29T06:44:27.687Z,0
2018-12-29T06:45:29.838Z,0
2018-12-29T06:46:35.031Z,0
2018-12-29T06:47:37.348Z,0
2018-12-29T06:48:39.801Z,0
2018-12-29T06:49:42.330Z,0
2018-12-29T06:50:44.475Z,0
2018-12-29T06:51:46.618Z,0
2018-12-29T06:52:48.780Z,4
2018-12-29T06:53:50.926Z,0
2018-12-29T06:54:53.145Z,4
2018-12-29T06:55:55.275Z,4
2018-12-29T06:56:57.439Z,4
2018-12-29T06:57:59.586Z,0
2018-12-29T06:59:02.389Z,0
2018-12-29T07:00:04.572Z,4
2018-12-29T07:01:06.697Z,0
2018-12-29T07:02:09.221Z,4
2018-12-29T07:03:11.375Z,4
2018-12-29T07:04:13.508Z,4
2018-12-29T07:05:15.657Z,4
2018-12-29T07:06:17.788Z,8
2018-12-29T07:07:19.921Z,4
2018-12-29T07:08:22.045Z,8
2018-12-29T07:09:24.183Z,8
2018-12-29T07:10:26.325Z,8
2018-12-29T07:11:28.737Z,12
2018-12-29T07:12:30.898Z,16
2018-12-29T07:13:33.124Z,16
2018-12-29T07:14:35.272Z,16
2018-12-29T07:15:37.401Z,20
2018-12-29T07:16:42.307Z,24
2018-12-29T07:17:44.933Z,32
2018-12-29T07:18:47.363Z,36
2018-12-29T07:19:49.485Z,48
2018-12-29T07:20:51.618Z,60
2018-12-29T07:21:54.056Z,56
2018-12-29T07:22:56.493Z,56
2018-12-29T07:23:58.619Z,72
2018-12-29T07:25:00.768Z,80
2018-12-29T07:26:02.909Z,96
2018-12-29T07:27:05.046Z,92
2018-12-29T07:28:07.172Z,92
2018-12-29T07:29:09.323Z,96
2018-12-29T07:30:11.464Z,100
2018-12-29T07:31:13.601Z,112
2018-12-29T07:32:15.736Z,132
2018-12-29T07:33:17.849Z,140
2018-12-29T07:34:19.973Z,160
2018-12-29T07:35:22.129Z,216
2018-12-29T07:36:24.573Z,236
2018-12-29T07:37:26.739Z,272
2018-12-29T07:38:28.888Z,276
2018-12-29T07:39:31.037Z,244
2018-12-29T07:40:33.195Z,268
2018-12-29T07:41:35.703Z,284
2018-12-29T07:42:39.480Z,348
2018-12-29T07:43:41.614Z,376
2018-12-29T07:44:43.758Z,384
2018-12-29T07:45:46.161Z,408
2018-12-29T07:46:49.654Z,424
2018-12-29T07:47:52.242Z,388
2018-12-29T07:48:54.381Z,452
2018-12-29T07:49:56.529Z,468
2018-12-29T07:50:58.934Z,520
2018-12-29T07:52:01.339Z,580
2018-12-29T07:53:03.466Z,572
2018-12-29T07:54:05.608Z,508
2018-12-29T07:55:07.753Z,496
2018-12-29T07:56:10.179Z,512
2018-12-29T07:57:12.294Z,512
2018-12-29T07:58:14.418Z,568
2018-12-29T07:59:16.557Z,624
2018-12-29T08:00:18.717Z,640
2018-12-29T08:01:20.963Z,700
2018-12-29T08:02:23.102Z,732
2018-12-29T08:03:25.253Z,748
2018-12-29T08:04:27.394Z,864
2018-12-29T08:05:29.523Z,872
2018-12-29T08:06:33.329Z,888
2018-12-29T08:07:35.474Z,1028
2018-12-29T08:08:37.650Z,1004
2018-12-29T08:09:40.211Z,944
2018-12-29T08:10:42.635Z,948
2018-12-29T08:11:44.794Z,996
2018-12-29T08:12:46.931Z,1012
2018-12-29T08:13:49.084Z,920
2018-12-29T08:14:51.202Z,924
2018-12-29T08:15:53.338Z,1092
2018-12-29T08:16:56.892Z,1228
2018-12-29T08:17:59.222Z,1272
2018-12-29T08:19:01.651Z,1340
2018-12-29T08:20:03.776Z,1116
2018-12-29T08:21:05.943Z,1204
2018-12-29T08:22:08.076Z,1164
2018-12-29T08:23:10.194Z,1168
2018-12-29T08:24:12.344Z,1204
2018-12-29T08:25:14.481Z,1352
2018-12-29T08:26:16.628Z,1412
2018-12-29T08:27:18.761Z,1400
2018-12-29T08:28:20.895Z,1652
2018-12-29T08:29:23.313Z,1464
2018-12-29T08:30:25.739Z,1440
2018-12-29T08:31:28.141Z,1340
2018-12-29T08:32:30.560Z,1268
2018-12-29T08:33:32.992Z,1240
2018-12-29T08:34:35.129Z,1184
2018-12-29T08:35:37.271Z,1228
2018-12-29T08:36:39.704Z,1388
2018-12-29T08:37:41.837Z,1452
2018-12-29T08:38:43.988Z,1652
2018-12-29T08:39:46.433Z,1436
2018-12-29T08:40:48.857Z,1572
2018-12-29T08:41:50.981Z,1832
2018-12-29T08:42:53.114Z,1856
2018-12-29T08:43:55.538Z,2200
2018-12-29T08:44:57.681Z,2092
2018-12-29T08:45:59.813Z,1908
2018-12-29T08:47:04.549Z,1916
2018-12-29T08:48:06.935Z,2296
2018-12-29T08:49:09.074Z,2000
2018-12-29T08:50:13.113Z,2436
2018-12-29T08:51:15.569Z,2544
2018-12-29T08:52:17.728Z,2848
2018-12-29T08:53:20.165Z,2600
2018-12-29T08:54:22.298Z,2756
2018-12-29T08:55:24.438Z,2488
2018-12-29T08:56:26.577Z,2592
2018-12-29T08:57:28.744Z,2192
2018-12-29T08:58:31.180Z,3096
2018-12-29T08:59:33.334Z,3432
2018-12-29T09:00:35.767Z,2088
2018-12-29T09:01:38.200Z,2600
2018-12-29T09:02:40.361Z,2676
2018-12-29T09:03:42.795Z,3036
2018-12-29T09:04:44.947Z,3064
2018-12-29T09:05:48.740Z,3392
2018-12-29T09:06:50.872Z,3712
2018-12-29T09:07:53.016Z,4216
2018-12-29T09:08:55.490Z,5656
2018-12-29T09:09:57.650Z,5544
2018-12-29T09:11:00.379Z,5548
2018-12-29T09:12:02.517Z,5936
2018-12-29T09:13:04.669Z,5624
2018-12-29T09:14:06.807Z,4288
2018-12-29T09:15:08.954Z,4868
2018-12-29T09:16:11.084Z,4572
2018-12-29T09:17:13.633Z,4176
2018-12-29T09:18:15.770Z,3948
2018-12-29T09:19:17.902Z,3676
2018-12-29T09:20:20.038Z,3144
2018-12-29T09:21:22.180Z,2760
2018-12-29T09:22:24.317Z,3548
2018-12-29T09:23:26.756Z,3832
2018-12-29T09:24:29.283Z,4328
2018-12-29T09:25:31.430Z,4128
2018-12-29T09:26:33.578Z,3756
2018-12-29T09:27:36.329Z,3872
2018-12-29T09:28:38.496Z,3380
2018-12-29T09:29:40.637Z,3084
2018-12-29T09:30:42.777Z,2688
2018-12-29T09:31:44.917Z,2940
2018-12-29T09:32:47.371Z,2660
2018-12-29T09:33:49.505Z,3444
2018-12-29T09:34:51.651Z,4352
2018-12-29T09:35:54.102Z,4412
2018-12-29T09:36:57.794Z,4340
2018-12-29T09:38:00.306Z,3820
2018-12-29T09:39:02.456Z,3096
2018-12-29T09:40:04.596Z,2388
2018-12-29T09:41:06.746Z,2284
2018-12-29T09:42:09.189Z,2120
2018-12-29T09:43:11.335Z,2232
2018-12-29T09:44:13.462Z,2052
2018-12-29T09:45:15.615Z,2024
2018-12-29T09:46:18.062Z,1900
2018-12-29T09:47:20.201Z,1704
2018-12-29T09:48:22.350Z,1644
2018-12-29T09:49:24.806Z,1616
2018-12-29T09:50:26.949Z,1472
2018-12-29T09:51:29.078Z,1588
2018-12-29T09:52:31.203Z,1776
2018-12-29T09:53:33.362Z,1796
2018-12-29T09:54:35.516Z,1928
2018-12-29T09:55:37.648Z,2192
2018-12-29T09:56:40.055Z,2108
2018-12-29T09:57:42.211Z,2132
2018-12-29T09:58:44.372Z,2328
2018-12-29T09:59:46.778Z,1840
2018-12-29T10:00:49.201Z,1512
2018-12-29T10:01:51.691Z,1612
2018-12-29T10:02:54.615Z,1804
2018-12-29T10:03:56.747Z,2212
2018-12-29T10:04:58.908Z,2356
2018-12-29T10:06:01.105Z,2076
2018-12-29T10:07:03.638Z,2052
2018-12-29T10:08:06.069Z,2400
2018-12-29T10:09:08.201Z,2632
2018-12-29T10:10:10.362Z,2288
2018-12-29T10:11:12.488Z,2136
2018-12-29T10:12:14.627Z,2192
2018-12-29T10:13:16.778Z,2032
2018-12-29T10:14:18.918Z,2328
2018-12-29T10:15:21.037Z,1944
2018-12-29T10:16:23.193Z,1992
2018-12-29T10:17:26.953Z,1752
2018-12-29T10:18:31.018Z,2064
2018-12-29T10:19:33.146Z,2164
2018-12-29T10:20:35.279Z,1616
2018-12-29T10:21:37.429Z,1644
2018-12-29T10:22:39.832Z,2584
2018-12-29T10:23:41.986Z,2608
2018-12-29T10:24:44.510Z,1688
2018-12-29T10:25:46.647Z,1924
2018-12-29T10:26:49.487Z,2428
2018-12-29T10:27:51.686Z,3828
2018-12-29T10:28:53.812Z,4448
2018-12-29T10:29:55.954Z,4420
2018-12-29T10:30:58.092Z,3960
2018-12-29T10:32:00.520Z,4788
2018-12-29T10:33:02.649Z,6228
2018-12-29T10:34:04.775Z,6568
2018-12-29T10:35:06.928Z,6504
2018-12-29T10:36:09.459Z,5836
2018-12-29T10:37:11.586Z,5204
2018-12-29T10:38:13.805Z,3980
2018-12-29T10:39:15.949Z,2580
2018-12-29T10:40:18.093Z,2084
2018-12-29T10:41:20.319Z,1916
2018-12-29T10:42:22.462Z,1692
2018-12-29T10:43:24.577Z,2020
2018-12-29T10:44:26.700Z,2272
2018-12-29T10:45:28.851Z,2576
2018-12-29T10:46:31.037Z,1988
2018-12-29T10:47:34.589Z,1704
2018-12-29T10:48:36.941Z,2048
2018-12-29T10:49:39.106Z,1944
2018-12-29T10:50:41.253Z,2196
2018-12-29T10:51:43.398Z,1672
2018-12-29T10:52:45.532Z,1804
2018-12-29T10:53:47.688Z,2304
2018-12-29T10:54:49.840Z,2696
2018-12-29T10:55:51.979Z,2340
2018-12-29T10:56:54.131Z,2524
2018-12-29T10:57:56.252Z,1968
2018-12-29T10:58:58.659Z,2620
2018-12-29T11:00:00.813Z,1932
2018-12-29T11:01:03.333Z,1816
2018-12-29T11:02:05.490Z,1432
2018-12-29T11:03:07.719Z,1480
2018-12-29T11:04:09.867Z,1620
2018-12-29T11:05:12.644Z,1248
2018-12-29T11:06:14.801Z,1280
2018-12-29T11:07:16.944Z,1276
2018-12-29T11:08:19.093Z,1168
2018-12-29T11:09:21.511Z,1120
2018-12-29T11:10:23.641Z,1232
2018-12-29T11:11:25.776Z,1140
2018-12-29T11:12:28.297Z,1208
2018-12-29T11:13:30.437Z,1288
2018-12-29T11:14:32.589Z,1528
2018-12-29T11:15:34.739Z,1388
2018-12-29T11:16:36.882Z,1472
2018-12-29T11:17:42.231Z,1464
2018-12-29T11:18:44.737Z,1236
2018-12-29T11:19:46.955Z,1064
2018-12-29T11:20:49.121Z,1100
2018-12-29T11:21:51.269Z,1272
2018-12-29T11:22:53.765Z,1208
2018-12-29T11:23:55.914Z,1124
2018-12-29T11:24:58.360Z,1344
2018-12-29T11:26:00.509Z,1528
2018-12-29T11:27:02.643Z,1308
2018-12-29T11:28:04.782Z,1568
2018-12-29T11:29:06.917Z,1316
2018-12-29T11:30:09.076Z,1208
2018-12-29T11:31:11.212Z,896
2018-12-29T11:32:13.368Z,1132
2018-12-29T11:33:15.514Z,1440
2018-12-29T11:34:17.657Z,1636
2018-12-29T11:35:19.801Z,1624
2018-12-29T11:36:29.903Z,1816
2018-12-29T11:37:32.046Z,2288
2018-12-29T11:38:34.465Z,1856
2018-12-29T11:39:36.620Z,2200
2018-12-29T11:40:38.755Z,1568
2018-12-29T11:41:40.910Z,1256
2018-12-29T11:42:43.320Z,1780
2018-12-29T11:43:45.755Z,2424
2018-12-29T11:44:47.931Z,2864
2018-12-29T11:45:50.053Z,4032
2018-12-29T11:46:52.182Z,3772
2018-12-29T11:47:54.319Z,3308
2018-12-29T11:48:56.470Z,5464
2018-12-29T11:49:58.682Z,6168
2018-12-29T11:51:00.851Z,3872
2018-12-29T11:52:04.656Z,3984
2018-12-29T11:53:07.118Z,3928
2018-12-29T11:54:09.310Z,3012
2018-12-29T11:55:11.503Z,2848
2018-12-29T11:56:13.682Z,3192
2018-12-29T11:57:15.849Z,4096
2018-12-29T11:58:18.051Z,4160
2018-12-29T11:59:20.549Z,3884
2018-12-29T12:00:22.728Z,4388
2018-12-29T12:01:25.225Z,4152
2018-12-29T12:02:27.427Z,3556
2018-12-29T12:03:29.653Z,3312
2018-12-29T12:04:31.852Z,3612
2018-12-29T12:05:34.896Z,3256
2018-12-29T12:06:38.035Z,3184
2018-12-29T12:07:40.220Z,4256
2018-12-29T12:08:42.428Z,3784
2018-12-29T12:09:44.622Z,3812
2018-12-29T12:10:46.816Z,5144
2018-12-29T12:11:49.009Z,4472
2018-12-29T12:12:51.202Z,4204
2018-12-29T12:13:53.361Z,4436
2018-12-29T12:14:55.534Z,4856
2018-12-29T12:15:57.837Z,3404
2018-12-29T12:17:00.035Z,3468
2018-12-29T12:18:02.256Z,4220
2018-12-29T12:19:05.378Z,3128
2018-12-29T12:20:09.128Z,2748
2018-12-29T12:21:11.322Z,2932
2018-12-29T12:22:13.530Z,4576
2018-12-29T12:23:16.023Z,4016
2018-12-29T12:24:18.210Z,2820
2018-12-29T12:25:20.409Z,2356
2018-12-29T12:26:24.378Z,2748
2018-12-29T12:27:27.005Z,3440
2018-12-29T12:28:31.251Z,2768
2018-12-29T12:29:33.442Z,2116
2018-12-29T12:30:35.660Z,2576
2018-12-29T12:31:38.888Z,1944
2018-12-29T12:32:41.181Z,1808
2018-12-29T12:33:43.389Z,2092
2018-12-29T12:34:45.582Z,2100
2018-12-29T12:35:47.786Z,1836
2018-12-29T12:36:51.603Z,1808
2018-12-29T12:37:54.108Z,2288
2018-12-29T12:38:56.321Z,2472
2018-12-29T12:39:59.885Z,2736
2018-12-29T12:41:02.496Z,2512
2018-12-29T12:42:05.073Z,2008
2018-12-29T12:43:07.620Z,1872
2018-12-29T12:44:11.310Z,1900
2018-12-29T12:45:15.402Z,2244
2018-12-29T12:46:17.913Z,2608
2018-12-29T12:47:21.558Z,2480
2018-12-29T12:48:24.068Z,1980
2018-12-29T12:49:27.249Z,2224
2018-12-29T12:50:29.477Z,1984
2018-12-29T12:51:31.725Z,2200
2018-12-29T12:52:33.911Z,2056
2018-12-29T12:53:36.513Z,1916
2018-12-29T12:54:38.807Z,1948
2018-12-29T12:55:42.803Z,1788
2018-12-29T12:56:46.435Z,1656
2018-12-29T12:57:49.989Z,1544
2018-12-29T12:58:53.948Z,1572
2018-12-29T12:59:57.798Z,1576
2018-12-29T13:01:01.664Z,2048
2018-12-29T13:02:05.609Z,1732
2018-12-29T13:03:07.832Z,1900
2018-12-29T13:04:10.315Z,1860
2018-12-29T13:05:12.892Z,1712
2018-12-29T13:06:15.097Z,1704
2018-12-29T13:07:17.631Z,1660
2018-12-29T13:08:20.169Z,1912
2018-12-29T13:09:22.346Z,1648
2018-12-29T13:10:24.530Z,1944
2018-12-29T13:11:26.735Z,1736
2018-12-29T13:12:28.915Z,1772
2018-12-29T13:13:31.498Z,1648
2018-12-29T13:14:34.372Z,1600
2018-12-29T13:15:38.106Z,1536
2018-12-29T13:16:40.325Z,1504
2018-12-29T13:17:42.537Z,1344
2018-12-29T13:18:44.731Z,1236
2018-12-29T13:19:46.928Z,1068
2018-12-29T13:20:49.113Z,844
2018-12-29T13:21:51.310Z,796
2018-12-29T13:22:53.791Z,784
2018-12-29T13:23:55.981Z,788
2018-12-29T13:24:58.192Z,744
2018-12-29T13:26:00.389Z,736
2018-12-29T13:27:02.584Z,896
2018-12-29T13:28:04.774Z,828
2018-12-29T13:29:08.463Z,836
2018-12-29T13:30:10.639Z,884
2018-12-29T13:31:13.124Z,768
2018-12-29T13:32:15.287Z,812
2018-12-29T13:33:17.483Z,824
2018-12-29T13:34:19.719Z,924
2018-12-29T13:35:21.925Z,912
2018-12-29T13:36:24.149Z,916
2018-12-29T13:37:26.366Z,1172
2018-12-29T13:38:28.563Z,1160
2018-12-29T13:39:30.801Z,876
2018-12-29T13:40:33.010Z,680
2018-12-29T13:41:35.175Z,852
2018-12-29T13:42:38.747Z,728
2018-12-29T13:43:40.920Z,896
2018-12-29T13:44:43.097Z,1132
2018-12-29T13:45:45.263Z,828
2018-12-29T13:46:47.464Z,928
2018-12-29T13:47:49.653Z,748
2018-12-29T13:48:51.843Z,876
2018-12-29T13:49:54.036Z,996
2018-12-29T13:50:56.242Z,972
2018-12-29T13:51:58.444Z,904
2018-12-29T13:53:00.647Z,908
2018-12-29T13:54:02.850Z,768
2018-12-29T13:55:05.032Z,968
2018-12-29T13:56:08.667Z,964
2018-12-29T13:57:11.161Z,1188
2018-12-29T13:58:13.354Z,1176
2018-12-29T13:59:15.589Z,1040
2018-12-29T14:00:17.781Z,1000
2018-12-29T14:01:20.004Z,820
2018-12-29T14:02:22.196Z,840
2018-12-29T14:03:24.410Z,788
2018-12-29T14:04:26.605Z,688
2018-12-29T14:05:28.792Z,640
2018-12-29T14:06:31.001Z,624
2018-12-29T14:07:33.200Z,580
2018-12-29T14:08:35.787Z,488
2018-12-29T14:09:39.002Z,536
2018-12-29T14:10:42.567Z,456
2018-12-29T14:11:44.749Z,380
2018-12-29T14:12:47.210Z,392
2018-12-29T14:13:49.382Z,340
2018-12-29T14:14:51.588Z,312
2018-12-29T14:15:54.057Z,324
2018-12-29T14:16:56.516Z,304
2018-12-29T14:17:58.694Z,312
2018-12-29T14:19:00.860Z,336
2018-12-29T14:20:03.428Z,316
2018-12-29T14:21:05.667Z,336
2018-12-29T14:22:07.867Z,316
2018-12-29T14:23:11.520Z,300
2018-12-29T14:24:15.059Z,312
2018-12-29T14:25:18.615Z,312
2018-12-29T14:26:20.821Z,324
2018-12-29T14:27:23.005Z,304
2018-12-29T14:28:25.179Z,288
2018-12-29T14:29:27.365Z,264
2018-12-29T14:30:29.869Z,236
2018-12-29T14:31:32.051Z,224
2018-12-29T14:32:34.252Z,252
2018-12-29T14:33:36.455Z,240
2018-12-29T14:34:38.661Z,248
2018-12-29T14:35:40.868Z,256
2018-12-29T14:36:43.049Z,244
2018-12-29T14:37:45.410Z,224